createdAt,value
2019-05-20T00:00:11.794Z,87.04
2019-05-20T00:01:11.809Z,87.04
2019-05-20T00:02:24.551Z,87.14
2019-05-20T00:03:12.753Z,87.04
2019-05-20T00:04:11.751Z,87.24
2019-05-20T00:05:11.745Z,87.24
2019-05-20T00:06:11.738Z,87.04
2019-05-20T00:07:11.762Z,86.53
2019-05-20T00:08:11.707Z,86.63
2019-05-20T00:09:11.692Z,85.81
2019-05-20T00:10:11.688Z,85.91
2019-05-20T00:11:11.670Z,85.91
2019-05-20T00:12:11.695Z,86.02
2019-05-20T00:13:11.652Z,85.61
2019-05-20T00:14:11.633Z,85.61
2019-05-20T00:15:11.646Z,85.61
2019-05-20T00:16:11.604Z,86.02
2019-05-20T00:17:11.600Z,85.77
2019-05-20T00:18:11.624Z,85.26
2019-05-20T00:19:11.569Z,85.91
2019-05-20T00:20:11.583Z,85.71
2019-05-20T00:21:11.550Z,85.71
2019-05-20T00:22:11.542Z,85.10
2019-05-20T00:23:11.531Z,84.99
2019-05-20T00:24:11.533Z,85.50
2019-05-20T00:25:11.780Z,85.50
2019-05-20T00:26:11.556Z,85.71
2019-05-20T00:27:11.476Z,85.81
2019-05-20T00:28:11.458Z,86.22
2019-05-20T00:29:11.451Z,87.14
2019-05-20T00:30:11.461Z,86.98
2019-05-20T00:31:11.457Z,87.24
2019-05-20T00:32:11.415Z,87.14
2019-05-20T00:33:11.424Z,86.73
2019-05-20T00:34:11.404Z,87.04
2019-05-20T00:35:11.409Z,87.04
2019-05-20T00:36:11.366Z,87.04
2019-05-20T00:37:11.357Z,87.24
2019-05-20T00:38:11.466Z,87.18
2019-05-20T00:39:11.358Z,87.04
2019-05-20T00:40:11.723Z,87.85
2019-05-20T00:41:11.317Z,87.96
2019-05-20T00:42:11.311Z,88.37
2019-05-20T00:43:11.292Z,88.17
2019-05-20T00:44:11.272Z,87.65
2019-05-20T00:45:11.321Z,87.65
2019-05-20T00:46:11.294Z,87.35
2019-05-20T00:47:11.257Z,87.04
2019-05-20T00:48:11.274Z,87.04
2019-05-20T00:49:11.267Z,87.45
2019-05-20T00:50:11.249Z,87.04
2019-05-20T00:51:11.211Z,87.45
2019-05-20T00:52:11.219Z,86.94
2019-05-20T00:53:11.211Z,87.24
2019-05-20T00:54:11.171Z,86.73
2019-05-20T00:55:11.164Z,87.35
2019-05-20T00:56:11.144Z,87.35
2019-05-20T00:57:11.141Z,87.61
2019-05-20T00:58:11.181Z,87.71
2019-05-20T00:59:11.116Z,87.41
2019-05-20T01:00:11.106Z,88.12
2019-05-20T01:01:11.290Z,88.12
2019-05-20T01:02:11.087Z,87.67
2019-05-20T01:03:11.093Z,87.71
2019-05-20T01:04:11.078Z,88.08
2019-05-20T01:05:11.046Z,87.88
2019-05-20T01:06:11.027Z,88.08
2019-05-20T01:07:11.013Z,88.08
2019-05-20T01:08:11.035Z,88.29
2019-05-20T01:09:11.016Z,88.18
2019-05-20T01:10:11.009Z,87.67
2019-05-20T01:11:10.994Z,88.29
2019-05-20T01:12:10.961Z,88.08
2019-05-20T01:13:10.988Z,88.08
2019-05-20T01:14:10.967Z,87.47
2019-05-20T01:15:10.931Z,87.23
2019-05-20T01:16:10.921Z,86.96
2019-05-20T01:17:10.925Z,86.96
2019-05-20T01:18:10.919Z,87.12
2019-05-20T01:19:10.917Z,86.71
2019-05-20T01:20:10.868Z,86.61
2019-05-20T01:21:10.892Z,86.82
2019-05-20T01:22:10.859Z,87.23
2019-05-20T01:23:10.837Z,86.91
2019-05-20T01:24:10.840Z,87.23
2019-05-20T01:25:10.850Z,87.37
2019-05-20T01:26:10.803Z,87.23
2019-05-20T01:27:10.805Z,87.06
2019-05-20T01:28:10.812Z,86.91
2019-05-20T01:29:10.775Z,87.02
2019-05-20T01:30:10.752Z,87.02
2019-05-20T01:31:10.767Z,86.91
2019-05-20T01:32:10.726Z,86.91
2019-05-20T01:33:14.242Z,86.91
2019-05-20T01:34:10.709Z,87.53
2019-05-20T01:35:10.725Z,87.53
2019-05-20T01:36:10.684Z,88.04
2019-05-20T01:37:10.671Z,88.04
2019-05-20T01:38:10.661Z,87.90
2019-05-20T01:39:10.662Z,87.70
2019-05-20T01:40:10.673Z,87.94
2019-05-20T01:41:10.619Z,87.94
2019-05-20T01:42:10.614Z,87.90
2019-05-20T01:43:10.600Z,88.10
2019-05-20T01:44:10.585Z,88.00
2019-05-20T01:45:10.644Z,88.14
2019-05-20T01:46:10.566Z,88.10
2019-05-20T01:47:10.558Z,88.00
2019-05-20T01:48:10.541Z,87.32
2019-05-20T01:49:10.532Z,87.18
2019-05-20T01:50:10.548Z,87.12
2019-05-20T01:51:10.543Z,87.32
2019-05-20T01:52:10.491Z,87.29
2019-05-20T01:53:10.488Z,87.18
2019-05-20T01:54:10.487Z,87.84
2019-05-20T01:55:10.510Z,88.00
2019-05-20T01:56:10.447Z,87.79
2019-05-20T01:57:10.440Z,87.84
2019-05-20T01:58:10.432Z,86.91
2019-05-20T01:59:10.415Z,86.67
2019-05-20T02:00:10.438Z,87.18
2019-05-20T02:01:10.435Z,86.77
2019-05-20T02:02:10.434Z,87.02
2019-05-20T02:03:10.366Z,86.88
2019-05-20T02:04:10.363Z,87.12
2019-05-20T02:05:10.374Z,86.61
2019-05-20T02:06:10.373Z,87.38
2019-05-20T02:07:10.349Z,87.18
2019-05-20T02:08:10.323Z,88.20
2019-05-20T02:09:10.296Z,88.04
2019-05-20T02:10:10.324Z,87.90
2019-05-20T02:11:10.271Z,88.35
2019-05-20T02:12:10.262Z,88.35
2019-05-20T02:13:10.312Z,88.04
2019-05-20T02:14:10.253Z,88.24
2019-05-20T02:15:10.226Z,89.02
2019-05-20T02:16:10.245Z,89.02
2019-05-20T02:17:10.211Z,88.76
2019-05-20T02:18:10.196Z,89.06
2019-05-20T02:19:10.257Z,88.41
2019-05-20T02:20:10.168Z,89.06
2019-05-20T02:21:10.189Z,88.82
2019-05-20T02:22:10.143Z,88.04
2019-05-20T02:23:10.156Z,88.04
2019-05-20T02:24:10.157Z,88.04
2019-05-20T02:25:10.127Z,88.00
2019-05-20T02:26:10.133Z,88.10
2019-05-20T02:27:10.126Z,88.20
2019-05-20T02:28:10.078Z,88.04
2019-05-20T02:29:10.091Z,88.31
2019-05-20T02:30:10.071Z,88.92
2019-05-20T02:31:10.067Z,88.61
2019-05-20T02:32:10.034Z,88.71
2019-05-20T02:33:10.048Z,89.12
2019-05-20T02:34:10.014Z,88.20
2019-05-20T02:35:09.995Z,88.10
2019-05-20T02:36:10.020Z,88.31
2019-05-20T02:37:09.977Z,88.31
2019-05-20T02:38:09.954Z,88.71
2019-05-20T02:39:09.953Z,88.00
2019-05-20T02:40:10.003Z,88.71
2019-05-20T02:41:09.943Z,88.92
2019-05-20T02:42:09.915Z,89.06
2019-05-20T02:43:09.898Z,89.12
2019-05-20T02:44:09.883Z,88.51
2019-05-20T02:45:09.894Z,89.12
2019-05-20T02:46:09.911Z,89.12
2019-05-20T02:47:09.844Z,89.02
2019-05-20T02:48:09.845Z,89.02
2019-05-20T02:49:09.845Z,88.92
2019-05-20T02:50:09.814Z,88.92
2019-05-20T02:51:09.808Z,88.92
2019-05-20T02:52:09.821Z,89.12
2019-05-20T02:53:09.826Z,88.65
2019-05-20T02:54:09.787Z,89.06
2019-05-20T02:55:09.760Z,88.61
2019-05-20T02:56:09.753Z,89.12
2019-05-20T02:57:09.727Z,88.92
2019-05-20T02:58:09.747Z,89.12
2019-05-20T02:59:09.743Z,88.45
2019-05-20T03:00:09.690Z,88.35
2019-05-20T03:01:09.709Z,88.76
2019-05-20T03:02:09.676Z,88.65
2019-05-20T03:03:09.664Z,88.96
2019-05-20T03:04:12.276Z,88.76
2019-05-20T03:05:09.668Z,89.06
2019-05-20T03:06:09.657Z,88.85
2019-05-20T03:07:09.623Z,88.24
2019-05-20T03:08:09.615Z,88.35
2019-05-20T03:09:12.072Z,88.39
2019-05-20T03:10:09.607Z,88.76
2019-05-20T03:11:09.595Z,88.96
2019-05-20T03:12:09.592Z,89.17
2019-05-20T03:13:09.597Z,89.06
2019-05-20T03:14:09.537Z,89.20
2019-05-20T03:15:09.524Z,89.06
2019-05-20T03:16:09.545Z,88.76
2019-05-20T03:17:09.500Z,88.85
2019-05-20T03:18:09.490Z,88.35
2019-05-20T03:19:09.506Z,88.79
2019-05-20T03:20:09.485Z,88.90
2019-05-20T03:21:09.483Z,88.39
2019-05-20T03:22:09.453Z,88.08
2019-05-20T03:23:09.451Z,87.98
2019-05-20T03:24:09.421Z,88.29
2019-05-20T03:25:09.408Z,89.00
2019-05-20T03:26:09.409Z,88.79
2019-05-20T03:27:09.382Z,88.39
2019-05-20T03:28:09.413Z,88.14
2019-05-20T03:29:09.359Z,88.29
2019-05-20T03:30:09.357Z,88.29
2019-05-20T03:31:09.337Z,88.18
2019-05-20T03:32:09.400Z,89.00
2019-05-20T03:33:09.340Z,88.90
2019-05-20T03:34:09.333Z,89.11
2019-05-20T03:35:09.329Z,89.00
2019-05-20T03:36:09.275Z,88.70
2019-05-20T03:37:09.254Z,88.96
2019-05-20T03:38:09.384Z,89.00
2019-05-20T03:39:09.265Z,88.90
2019-05-20T03:40:09.230Z,89.20
2019-05-20T03:41:09.215Z,89.00
2019-05-20T03:42:09.196Z,88.59
2019-05-20T03:43:09.225Z,89.00
2019-05-20T03:44:09.206Z,88.90
2019-05-20T03:45:09.167Z,89.00
2019-05-20T03:46:09.151Z,88.59
2019-05-20T03:47:09.158Z,88.79
2019-05-20T03:48:09.152Z,88.79
2019-05-20T03:49:09.164Z,89.00
2019-05-20T03:50:09.170Z,88.70
2019-05-20T03:51:09.099Z,89.17
2019-05-20T03:52:09.089Z,89.20
2019-05-20T03:53:09.085Z,89.11
2019-05-20T03:54:09.070Z,90.23
2019-05-20T03:55:09.079Z,89.72
2019-05-20T03:56:09.058Z,89.92
2019-05-20T03:57:09.047Z,89.31
2019-05-20T03:58:12.980Z,89.20
2019-05-20T03:59:09.007Z,89.20
2019-05-20T04:00:09.002Z,89.20
2019-05-20T04:01:09.000Z,89.20
2019-05-20T04:02:09.016Z,89.17
2019-05-20T04:03:08.952Z,89.17
2019-05-20T04:04:08.942Z,89.26
2019-05-20T04:05:08.935Z,88.76
2019-05-20T04:06:08.918Z,88.55
2019-05-20T04:07:08.935Z,89.26
2019-05-20T04:08:09.022Z,89.17
2019-05-20T04:09:08.893Z,89.67
2019-05-20T04:10:08.895Z,89.78
2019-05-20T04:11:08.885Z,89.78
2019-05-20T04:12:08.952Z,89.67
2019-05-20T04:13:08.921Z,89.67
2019-05-20T04:14:08.820Z,89.17
2019-05-20T04:15:08.962Z,89.06
2019-05-20T04:16:08.959Z,89.17
2019-05-20T04:17:08.789Z,89.37
2019-05-20T04:18:08.890Z,89.02
2019-05-20T04:19:08.776Z,89.26
2019-05-20T04:20:08.826Z,89.67
2019-05-20T04:21:08.749Z,89.73
2019-05-20T04:22:08.741Z,89.88
2019-05-20T04:23:08.749Z,89.84
2019-05-20T04:24:08.753Z,89.84
2019-05-20T04:25:08.775Z,89.84
2019-05-20T04:26:08.780Z,89.94
2019-05-20T04:27:08.755Z,89.84
2019-05-20T04:28:08.711Z,89.53
2019-05-20T04:29:08.779Z,89.69
2019-05-20T04:30:08.652Z,89.69
2019-05-20T04:31:08.837Z,89.69
2019-05-20T04:32:08.624Z,89.39
2019-05-20T04:33:08.662Z,89.59
2019-05-20T04:34:08.605Z,89.59
2019-05-20T04:35:21.307Z,89.55
2019-05-20T04:36:09.754Z,89.55
2019-05-20T04:37:08.738Z,89.65
2019-05-20T04:38:08.801Z,89.75
2019-05-20T04:39:08.552Z,89.34
2019-05-20T04:40:08.556Z,89.55
2019-05-20T04:41:08.545Z,89.75
2019-05-20T04:42:08.500Z,89.71
2019-05-20T04:43:08.515Z,89.51
2019-05-20T04:44:08.497Z,89.61
2019-05-20T04:45:08.482Z,89.81
2019-05-20T04:46:08.457Z,89.71
2019-05-20T04:47:08.522Z,89.61
2019-05-20T04:48:08.449Z,89.16
2019-05-20T04:49:08.454Z,88.45
2019-05-20T04:50:08.444Z,88.55
2019-05-20T04:51:08.405Z,88.85
2019-05-20T04:52:08.399Z,88.75
2019-05-20T04:53:08.394Z,88.65
2019-05-20T04:54:08.447Z,87.84
2019-05-20T04:55:08.397Z,88.75
2019-05-20T04:56:08.392Z,88.51
2019-05-20T04:57:08.337Z,88.96
2019-05-20T04:58:08.377Z,89.01
2019-05-20T04:59:08.315Z,88.71
2019-05-20T05:00:08.333Z,88.81
2019-05-20T05:01:08.346Z,88.81
2019-05-20T05:02:08.280Z,88.61
2019-05-20T05:03:08.275Z,88.81
2019-05-20T05:04:08.322Z,88.40
2019-05-20T05:05:08.291Z,88.00
2019-05-20T05:06:08.274Z,87.79
2019-05-20T05:07:08.240Z,87.29
2019-05-20T05:08:08.251Z,87.90
2019-05-20T05:09:08.279Z,87.49
2019-05-20T05:10:08.229Z,87.59
2019-05-20T05:11:08.209Z,87.29
2019-05-20T05:12:08.170Z,87.38
2019-05-20T05:13:08.153Z,87.38
2019-05-20T05:14:08.159Z,87.55
2019-05-20T05:15:08.298Z,87.59
2019-05-20T05:16:08.301Z,87.85
2019-05-20T05:17:08.134Z,87.65
2019-05-20T05:18:08.107Z,87.96
2019-05-20T05:19:08.185Z,87.59
2019-05-20T05:20:17.194Z,87.55
2019-05-20T05:21:09.066Z,88.87
2019-05-20T05:22:08.058Z,88.67
2019-05-20T05:23:08.053Z,88.46
2019-05-20T05:24:08.100Z,87.96
2019-05-20T05:25:08.047Z,87.85
2019-05-20T05:26:08.058Z,87.45
2019-05-20T05:27:08.032Z,87.85
2019-05-20T05:28:07.983Z,87.92
2019-05-20T05:29:07.985Z,86.90
2019-05-20T05:30:08.043Z,86.90
2019-05-20T05:31:08.002Z,86.90
2019-05-20T05:32:07.975Z,87.20
2019-05-20T05:33:07.975Z,86.90
2019-05-20T05:34:07.937Z,86.55
2019-05-20T05:35:07.989Z,86.45
2019-05-20T05:36:07.900Z,86.25
2019-05-20T05:37:07.943Z,86.76
2019-05-20T05:38:08.277Z,86.86
2019-05-20T05:39:07.889Z,86.96
2019-05-20T05:40:08.377Z,86.55
2019-05-20T05:41:07.860Z,86.71
2019-05-20T05:42:08.721Z,86.51
2019-05-20T05:43:07.851Z,86.61
2019-05-20T05:44:07.828Z,85.90
2019-05-20T05:45:07.811Z,86.61
2019-05-20T05:46:07.831Z,85.86
2019-05-20T05:47:07.782Z,85.76
2019-05-20T05:48:07.842Z,85.76
2019-05-20T05:49:07.756Z,85.31
2019-05-20T05:50:07.803Z,85.31
2019-05-20T05:51:07.760Z,85.21
2019-05-20T05:52:07.735Z,85.01
2019-05-20T05:53:07.790Z,84.77
2019-05-20T05:54:07.714Z,84.97
2019-05-20T05:55:07.713Z,85.17
2019-05-20T05:56:07.677Z,84.36
2019-05-20T05:57:07.723Z,83.91
2019-05-20T05:58:08.782Z,84.42
2019-05-20T05:59:07.725Z,83.81
2019-05-20T06:00:07.650Z,83.71
2019-05-20T06:01:07.625Z,83.61
2019-05-20T06:02:07.627Z,83.51
2019-05-20T06:03:07.607Z,82.70
2019-05-20T06:04:07.630Z,83.26
2019-05-20T06:05:07.586Z,82.96
2019-05-20T06:06:13.104Z,82.66
2019-05-20T06:07:08.553Z,82.25
2019-05-20T06:08:07.534Z,81.95
2019-05-20T06:09:07.555Z,82.21
2019-05-20T06:10:07.563Z,82.42
2019-05-20T06:11:07.508Z,82.11
2019-05-20T06:12:08.302Z,80.19
2019-05-20T06:13:07.538Z,79.78
2019-05-20T06:14:07.498Z,80.59
2019-05-20T06:15:07.504Z,80.76
2019-05-20T06:16:07.474Z,80.25
2019-05-20T06:17:07.455Z,82.14
2019-05-20T06:18:07.469Z,78.79
2019-05-20T06:19:07.406Z,78.19
2019-05-20T06:20:07.421Z,78.19
2019-05-20T06:21:07.410Z,77.21
2019-05-20T06:22:07.395Z,77.98
2019-05-20T06:23:07.366Z,79.00
2019-05-20T06:24:08.339Z,79.67
2019-05-20T06:25:07.395Z,80.18
2019-05-20T06:26:07.329Z,79.57
2019-05-20T06:27:07.355Z,79.26
2019-05-20T06:28:07.334Z,78.72
2019-05-20T06:29:07.291Z,78.72
2019-05-20T06:30:07.295Z,78.31
2019-05-20T06:31:07.388Z,77.06
2019-05-20T06:32:07.287Z,76.50
2019-05-20T06:33:07.241Z,74.94
2019-05-20T06:34:07.257Z,73.83
2019-05-20T06:35:07.361Z,74.94
2019-05-20T06:36:07.203Z,75.55
2019-05-20T06:37:07.199Z,76.66
2019-05-20T06:38:07.259Z,77.57
2019-05-20T06:39:07.182Z,77.57
2019-05-20T06:40:07.770Z,77.53
2019-05-20T06:41:07.177Z,76.93
2019-05-20T06:42:07.847Z,77.73
2019-05-20T06:43:07.132Z,78.71
2019-05-20T06:44:07.118Z,76.89
2019-05-20T06:45:07.112Z,76.69
2019-05-20T06:46:07.124Z,75.57
2019-05-20T06:47:07.125Z,74.57
2019-05-20T06:48:07.100Z,73.25
2019-05-20T06:49:07.093Z,73.55
2019-05-20T06:50:07.048Z,75.17
2019-05-20T06:51:07.187Z,73.66
2019-05-20T06:52:07.034Z,73.96
2019-05-20T06:53:07.021Z,73.55
2019-05-20T06:54:07.040Z,73.62
2019-05-20T06:55:07.065Z,74.87
2019-05-20T06:56:07.020Z,75.48
2019-05-20T06:57:07.007Z,75.48
2019-05-20T06:58:06.967Z,76.18
2019-05-20T06:59:06.999Z,75.13
2019-05-20T07:00:06.947Z,74.97
2019-05-20T07:01:06.960Z,75.34
2019-05-20T07:02:06.953Z,76.45
2019-05-20T07:03:06.906Z,75.34
2019-05-20T07:04:06.914Z,74.87
2019-05-20T07:05:06.879Z,76.59
2019-05-20T07:06:06.873Z,76.79
2019-05-20T07:07:19.987Z,75.88
2019-05-20T07:08:07.925Z,76.39
2019-05-20T07:09:06.837Z,75.37
2019-05-20T07:10:06.820Z,75.78
2019-05-20T07:11:06.821Z,75.37
2019-05-20T07:12:06.846Z,75.57
2019-05-20T07:13:06.826Z,75.27
2019-05-20T07:14:06.821Z,75.98
2019-05-20T07:15:06.772Z,75.17
2019-05-20T07:16:06.755Z,74.77
2019-05-20T07:17:06.736Z,75.27
2019-05-20T07:18:06.730Z,74.84
2019-05-20T07:19:06.809Z,75.57
2019-05-20T07:20:06.706Z,75.78
2019-05-20T07:21:06.695Z,75.07
2019-05-20T07:22:06.683Z,75.34
2019-05-20T07:23:06.736Z,75.24
2019-05-20T07:24:06.712Z,75.44
2019-05-20T07:25:06.658Z,75.13
2019-05-20T07:26:06.642Z,74.69
2019-05-20T07:27:06.634Z,74.19
2019-05-20T07:28:06.622Z,73.69
2019-05-20T07:29:06.627Z,74.69
2019-05-20T07:30:06.591Z,74.29
2019-05-20T07:31:06.621Z,74.19
2019-05-20T07:32:06.577Z,74.60
2019-05-20T07:33:06.618Z,74.90
2019-05-20T07:34:06.587Z,73.05
2019-05-20T07:35:06.542Z,74.90
2019-05-20T07:36:09.843Z,74.96
2019-05-20T07:37:06.514Z,73.35
2019-05-20T07:38:06.508Z,73.52
2019-05-20T07:39:06.528Z,73.92
2019-05-20T07:40:06.478Z,73.32
2019-05-20T07:41:06.540Z,73.65
2019-05-20T07:42:06.488Z,73.35
2019-05-20T07:43:06.446Z,73.45
2019-05-20T07:44:06.438Z,72.95
2019-05-20T07:45:06.427Z,73.25
2019-05-20T07:46:06.432Z,73.69
2019-05-20T07:47:06.395Z,74.09
2019-05-20T07:48:06.426Z,74.76
2019-05-20T07:49:06.382Z,74.09
2019-05-20T07:50:27.493Z,73.55
2019-05-20T07:51:06.391Z,73.35
2019-05-20T07:52:07.309Z,74.90
2019-05-20T07:53:06.331Z,73.79
2019-05-20T07:54:06.339Z,75.10
2019-05-20T07:55:06.309Z,74.69
2019-05-20T07:56:06.341Z,74.49
2019-05-20T07:57:06.315Z,75.31
2019-05-20T07:58:06.275Z,73.58
2019-05-20T07:59:06.264Z,73.35
2019-05-20T08:00:06.263Z,73.99
2019-05-20T08:01:06.274Z,74.60
2019-05-20T08:02:06.261Z,74.60
2019-05-20T08:03:06.210Z,73.69
2019-05-20T08:04:06.208Z,74.16
2019-05-20T08:05:06.249Z,74.05
2019-05-20T08:06:06.196Z,74.09
2019-05-20T08:07:26.049Z,73.25
2019-05-20T08:08:07.168Z,73.38
2019-05-20T08:09:06.159Z,73.69
2019-05-20T08:10:06.135Z,73.85
2019-05-20T08:11:06.161Z,73.38
2019-05-20T08:12:06.158Z,73.28
2019-05-20T08:13:06.129Z,73.25
2019-05-20T08:14:06.114Z,73.38
2019-05-20T08:15:06.107Z,73.38
2019-05-20T08:16:06.068Z,73.58
2019-05-20T08:17:06.053Z,75.00
2019-05-20T08:18:06.054Z,74.76
2019-05-20T08:19:06.084Z,74.66
2019-05-20T08:20:06.060Z,74.56
2019-05-20T08:21:06.022Z,74.05
2019-05-20T08:22:05.998Z,72.95
2019-05-20T08:23:05.991Z,73.75
2019-05-20T08:24:06.029Z,73.65
2019-05-20T08:25:05.969Z,74.96
2019-05-20T08:26:05.944Z,74.46
2019-05-20T08:27:05.987Z,73.75
2019-05-20T08:28:05.958Z,74.16
2019-05-20T08:29:05.962Z,74.76
2019-05-20T08:30:05.946Z,73.65
2019-05-20T08:31:05.892Z,72.61
2019-05-20T08:32:05.956Z,72.20
2019-05-20T08:33:05.863Z,73.52
2019-05-20T08:34:05.869Z,72.91
2019-05-20T08:35:05.901Z,72.91
2019-05-20T08:36:05.841Z,72.71
2019-05-20T08:37:05.856Z,72.88
2019-05-20T08:38:05.823Z,73.68
2019-05-20T08:39:05.806Z,72.67
2019-05-20T08:40:05.792Z,73.58
2019-05-20T08:41:05.831Z,73.28
2019-05-20T08:42:05.860Z,73.08
2019-05-20T08:43:05.772Z,72.98
2019-05-20T08:44:05.750Z,72.85
2019-05-20T08:45:05.746Z,73.28
2019-05-20T08:46:05.718Z,72.44
2019-05-20T08:47:05.775Z,72.34
2019-05-20T08:48:05.721Z,70.83
2019-05-20T08:49:10.452Z,71.44
2019-05-20T08:50:11.319Z,71.44
2019-05-20T08:51:06.673Z,71.53
2019-05-20T08:52:05.678Z,71.33
2019-05-20T08:53:05.681Z,71.06
2019-05-20T08:54:05.656Z,70.97
2019-05-20T08:55:05.639Z,72.14
2019-05-20T08:56:05.657Z,72.07
2019-05-20T08:57:05.628Z,71.67
2019-05-20T08:58:05.623Z,70.76
2019-05-20T08:59:05.829Z,71.17
2019-05-20T09:00:05.579Z,72.27
2019-05-20T09:01:05.930Z,73.58
2019-05-20T09:02:05.541Z,73.58
2019-05-20T09:03:05.582Z,74.59
2019-05-20T09:04:05.531Z,73.58
2019-05-20T09:05:05.514Z,71.70
2019-05-20T09:06:05.517Z,72.11
2019-05-20T09:07:05.528Z,72.91
2019-05-20T09:08:05.501Z,73.01
2019-05-20T09:09:05.469Z,75.03
2019-05-20T09:10:05.522Z,73.11
2019-05-20T09:11:05.476Z,73.52
2019-05-20T09:12:05.495Z,74.93
2019-05-20T09:13:05.416Z,73.96
2019-05-20T09:14:05.413Z,74.66
2019-05-20T09:15:05.402Z,74.87
2019-05-20T09:16:05.438Z,75.47
2019-05-20T09:17:05.381Z,74.76
2019-05-20T09:18:05.412Z,75.10
2019-05-20T09:19:05.370Z,76.72
2019-05-20T09:20:05.377Z,76.62
2019-05-20T09:21:05.402Z,76.82
2019-05-20T09:22:05.312Z,77.32
2019-05-20T09:23:05.316Z,78.13
2019-05-20T09:24:05.459Z,78.94
2019-05-20T09:25:05.480Z,78.43
2019-05-20T09:26:05.269Z,78.84
2019-05-20T09:27:05.272Z,78.63
2019-05-20T09:28:05.237Z,78.74
2019-05-20T09:29:05.281Z,79.14
2019-05-20T09:30:05.230Z,79.14
2019-05-20T09:31:05.222Z,78.43
2019-05-20T09:32:05.192Z,79.14
2019-05-20T09:33:05.201Z,79.14
2019-05-20T09:34:05.220Z,79.04
2019-05-20T09:35:05.253Z,79.74
2019-05-20T09:36:05.209Z,80.45
2019-05-20T09:37:05.149Z,81.36
2019-05-20T09:38:17.650Z,81.36
2019-05-20T09:39:06.127Z,81.32
2019-05-20T09:40:05.114Z,81.76
2019-05-20T09:41:05.100Z,80.01
2019-05-20T09:42:05.136Z,80.05
2019-05-20T09:43:05.125Z,79.64
2019-05-20T09:44:05.062Z,78.90
2019-05-20T09:45:05.138Z,79.81
2019-05-20T09:46:08.095Z,80.21
2019-05-20T09:47:05.079Z,80.21
2019-05-20T09:48:05.026Z,80.01
2019-05-20T09:49:05.037Z,80.21
2019-05-20T09:50:05.068Z,80.41
2019-05-20T09:51:04.984Z,80.11
2019-05-20T09:52:04.991Z,80.27
2019-05-20T09:53:07.138Z,79.67
2019-05-20T09:54:04.952Z,80.27
2019-05-20T09:55:04.991Z,79.06
2019-05-20T09:56:04.964Z,78.86
2019-05-20T09:57:04.927Z,78.76
2019-05-20T09:58:04.927Z,79.36
2019-05-20T09:59:04.914Z,79.27
2019-05-20T10:00:05.894Z,78.56
2019-05-20T10:01:04.942Z,78.46
2019-05-20T10:02:04.917Z,78.76
2019-05-20T10:03:05.240Z,78.66
2019-05-20T10:04:04.882Z,77.45
2019-05-20T10:05:25.946Z,78.56
2019-05-20T10:06:04.863Z,78.76
2019-05-20T10:07:04.854Z,79.13
2019-05-20T10:08:04.811Z,78.63
2019-05-20T10:09:04.806Z,79.33
2019-05-20T10:10:04.784Z,79.29
2019-05-20T10:11:04.763Z,78.02
2019-05-20T10:12:04.842Z,77.51
2019-05-20T10:13:04.822Z,78.08
2019-05-20T10:14:04.726Z,78.02
2019-05-20T10:15:04.744Z,78.02
2019-05-20T10:16:04.762Z,78.32
2019-05-20T10:17:04.718Z,78.83
2019-05-20T10:18:04.680Z,78.42
2019-05-20T10:19:04.692Z,77.17
2019-05-20T10:20:04.699Z,78.49
2019-05-20T10:21:04.690Z,77.82
2019-05-20T10:22:04.642Z,75.20
2019-05-20T10:23:04.759Z,76.31
2019-05-20T10:24:04.613Z,76.10
2019-05-20T10:25:04.730Z,75.74
2019-05-20T10:26:04.623Z,76.44
2019-05-20T10:27:04.621Z,77.51
2019-05-20T10:28:04.621Z,76.51
2019-05-20T10:29:04.597Z,76.51
2019-05-20T10:30:04.548Z,75.80
2019-05-20T10:31:04.572Z,76.75
2019-05-20T10:32:04.516Z,76.71
2019-05-20T10:33:09.464Z,76.14
2019-05-20T10:34:05.544Z,76.54
2019-05-20T10:35:04.494Z,77.04
2019-05-20T10:36:04.579Z,77.42
2019-05-20T10:37:04.466Z,77.72
2019-05-20T10:38:04.485Z,75.94
2019-05-20T10:39:07.683Z,76.24
2019-05-20T10:40:04.461Z,76.34
2019-05-20T10:41:04.423Z,77.35
2019-05-20T10:42:04.422Z,78.42
2019-05-20T10:43:04.453Z,76.40
2019-05-20T10:44:04.467Z,76.40
2019-05-20T10:45:04.417Z,76.40
2019-05-20T10:46:04.451Z,75.63
2019-05-20T10:47:04.394Z,76.84
2019-05-20T10:48:08.385Z,77.25
2019-05-20T10:49:04.344Z,77.15
2019-05-20T10:50:04.352Z,77.15
2019-05-20T10:51:04.352Z,76.75
2019-05-20T10:52:04.302Z,76.84
2019-05-20T10:53:04.371Z,76.54
2019-05-20T10:54:04.285Z,76.24
2019-05-20T10:55:04.256Z,76.34
2019-05-20T10:56:04.270Z,75.37
2019-05-20T10:57:04.294Z,76.58
2019-05-20T10:58:04.242Z,77.02
2019-05-20T10:59:04.243Z,76.92
2019-05-20T11:00:04.295Z,76.92
2019-05-20T11:01:04.215Z,77.32
2019-05-20T11:02:04.210Z,78.94
2019-05-20T11:03:04.236Z,77.73
2019-05-20T11:04:04.157Z,77.83
2019-05-20T11:05:04.138Z,77.93
2019-05-20T11:06:04.142Z,78.53
2019-05-20T11:07:04.125Z,78.77
2019-05-20T11:08:04.176Z,79.48
2019-05-20T11:09:13.753Z,79.17
2019-05-20T11:10:05.111Z,79.28
2019-05-20T11:11:04.155Z,80.19
2019-05-20T11:12:04.077Z,80.29
2019-05-20T11:13:04.085Z,79.38
2019-05-20T11:14:04.051Z,79.68
2019-05-20T11:15:04.071Z,78.97
2019-05-20T11:16:04.034Z,79.01
2019-05-20T11:17:04.009Z,79.92
2019-05-20T11:18:04.064Z,80.32
2019-05-20T11:19:03.989Z,81.27
2019-05-20T11:20:03.971Z,82.04
2019-05-20T11:21:03.976Z,82.14
2019-05-20T11:22:03.961Z,81.54
2019-05-20T11:23:03.977Z,81.48
2019-05-20T11:24:03.965Z,81.34
2019-05-20T11:25:03.972Z,81.78
2019-05-20T11:26:03.922Z,81.84
2019-05-20T11:27:03.898Z,81.68
2019-05-20T11:28:03.884Z,82.28
2019-05-20T11:29:03.870Z,82.18
2019-05-20T11:30:03.912Z,81.98
2019-05-20T11:31:03.842Z,81.57
2019-05-20T11:32:03.835Z,82.79
2019-05-20T11:33:03.890Z,82.08
2019-05-20T11:34:03.834Z,83.09
2019-05-20T11:35:03.828Z,82.59
2019-05-20T11:36:03.788Z,82.79
2019-05-20T11:37:03.940Z,82.49
2019-05-20T11:38:03.768Z,83.70
2019-05-20T11:39:06.692Z,83.50
2019-05-20T11:40:04.775Z,83.90
2019-05-20T11:41:03.739Z,84.11
2019-05-20T11:42:03.803Z,83.90
2019-05-20T11:43:03.716Z,83.60
2019-05-20T11:44:03.713Z,84.00
2019-05-20T11:45:03.681Z,84.00
2019-05-20T11:46:03.680Z,84.00
2019-05-20T11:47:03.732Z,82.89
2019-05-20T11:48:04.326Z,82.99
2019-05-20T11:49:03.703Z,84.11
2019-05-20T11:51:22.667Z,85.16
2019-05-20T11:53:15.235Z,86.16
2019-05-20T11:55:26.128Z,86.27
2019-05-20T11:57:42.037Z,86.37
2019-05-20T11:58:41.929Z,86.98
2019-05-20T11:59:41.897Z,86.27
2019-05-20T12:00:43.049Z,86.07
2019-05-20T12:01:42.004Z,86.27
2019-05-20T12:02:41.803Z,86.37
2019-05-20T12:03:41.804Z,86.21
2019-05-20T12:05:02.838Z,85.90
2019-05-20T12:05:41.766Z,86.10
2019-05-20T12:06:41.757Z,86.61
2019-05-20T12:07:41.793Z,86.96
2019-05-20T12:08:41.718Z,87.05
2019-05-20T12:09:49.465Z,87.36
2019-05-20T12:10:42.694Z,88.37
2019-05-20T12:11:41.901Z,87.87
2019-05-20T12:12:41.682Z,88.02
2019-05-20T12:13:41.678Z,88.07
2019-05-20T12:14:41.651Z,87.22
2019-05-20T12:15:55.890Z,86.85
2019-05-20T12:16:41.810Z,87.22
2019-05-20T12:17:41.751Z,88.02
2019-05-20T12:19:05.824Z,88.13
2019-05-20T12:19:41.747Z,88.13
2019-05-20T12:20:51.171Z,88.02
2019-05-20T12:21:51.247Z,88.17
2019-05-20T12:22:41.694Z,88.13
2019-05-20T12:23:41.668Z,87.46
2019-05-20T12:24:41.706Z,88.17
2019-05-20T12:25:41.568Z,88.27
2019-05-20T12:26:41.508Z,88.17
2019-05-20T12:27:59.785Z,88.57
2019-05-20T12:28:58.728Z,88.74
2019-05-20T12:29:56.000Z,89.18
2019-05-20T12:30:56.291Z,88.78
2019-05-20T12:31:50.802Z,88.98
2019-05-20T12:33:17.349Z,89.08
2019-05-20T12:33:53.831Z,89.28
2019-05-20T12:35:52.785Z,88.48
2019-05-20T12:37:01.394Z,87.66
2019-05-20T12:43:10.986Z,87.51
2019-05-20T12:44:09.966Z,87.65
2019-05-20T12:45:05.353Z,88.05
2019-05-20T12:46:00.250Z,89.17
2019-05-20T12:51:49.219Z,89.43
2019-05-20T12:52:22.060Z,89.53
2019-05-20T12:53:22.062Z,89.57
2019-05-20T12:54:22.054Z,89.73
2019-05-20T12:55:22.114Z,89.57
2019-05-20T12:56:21.979Z,89.87
2019-05-20T12:57:21.950Z,89.94
2019-05-20T12:58:21.959Z,90.69
2019-05-20T12:59:21.950Z,89.53
2019-05-20T13:00:21.914Z,90.03
2019-05-20T13:01:21.914Z,90.24
2019-05-20T13:02:21.890Z,90.34
2019-05-20T13:03:22.893Z,90.84
2019-05-20T13:04:21.897Z,89.73
2019-05-20T13:05:28.840Z,90.14
2019-05-20T13:06:24.297Z,89.73
2019-05-20T13:08:58.186Z,90.08